Time;durP1;ratioP1;P1;durP2;ratioP2;P2;SDS_P1;SDS_P2;PMS_P1;PMS_P2;Temp;Humidity;BMP_temperature;BMP_pressure;BME280_temperature;BME280_humidity;BME280_pressure;Samples;Min_cycle;Max_cycle;Signal;HPM_P1;HPM_P2
2022/09/27 00:01:40;;;;;;;13.97;12.40;;;14.70;99.90;;;;;;4955763;29;20717;-94
2022/09/27 00:04:06;;;;;;;14.43;12.07;;;14.70;99.90;;;;;;4955547;29;20205;-95
2022/09/27 00:06:33;;;;;;;13.67;11.37;;;14.70;99.90;;;;;;4956819;29;20273;-96
2022/09/27 00:08:59;;;;;;;12.43;10.63;;;14.70;99.90;;;;;;4956476;29;20181;-93
2022/09/27 00:11:41;;;;;;;12.00;10.80;;;14.60;99.90;;;;;;4955420;29;20430;-94
2022/09/27 00:14:09;;;;;;;11.90;10.70;;;14.60;99.90;;;;;;4955707;29;20465;-95
2022/09/27 00:16:36;;;;;;;12.73;9.80;;;14.60;99.90;;;;;;4958458;29;20486;-94
2022/09/27 00:19:06;;;;;;;17.30;10.50;;;14.50;99.90;;;;;;4959807;29;20443;-96
2022/09/27 00:21:32;;;;;;;11.30;10.10;;;14.50;99.90;;;;;;4961353;29;20479;-94
2022/09/27 00:23:58;;;;;;;12.93;10.43;;;14.50;99.90;;;;;;4955319;29;20824;-94
2022/09/27 00:26:25;;;;;;;15.13;11.67;;;14.40;99.90;;;;;;4987856;28;20177;-93
2022/09/27 00:28:51;;;;;;;11.13;10.10;;;14.40;99.90;;;;;;4955388;29;20397;-96
2022/09/27 00:31:22;;;;;;;15.53;11.27;;;14.40;99.90;;;;;;4955493;29;20427;-95
2022/09/27 00:33:50;;;;;;;13.00;10.30;;;14.40;99.90;;;;;;4956199;29;20584;-96
2022/09/27 00:36:17;;;;;;;13.67;11.03;;;14.40;99.90;;;;;;4964313;28;20422;-96
2022/09/27 00:38:43;;;;;;;15.60;11.20;;;14.40;99.90;;;;;;4972655;28;20950;-96
2022/09/27 00:41:18;;;;;;;16.80;10.33;;;14.40;99.90;;;;;;4972108;28;20513;-95
2022/09/27 00:43:52;;;;;;;13.70;10.67;;;14.40;99.90;;;;;;4971496;28;20411;-96
2022/09/27 00:46:28;;;;;;;11.53;10.33;;;14.40;99.90;;;;;;4962198;28;20429;-95
2022/09/27 00:49:05;;;;;;;12.43;10.97;;;14.40;99.90;;;;;;4961911;28;20414;-94
2022/09/27 00:51:33;;;;;;;14.73;9.43;;;14.30;99.90;;;;;;4978243;28;20501;-93
2022/09/27 00:54:00;;;;;;;13.50;10.67;;;14.30;99.90;;;;;;4979409;28;20410;-96
2022/09/27 00:56:29;;;;;;;21.93;10.60;;;14.30;99.90;;;;;;4961758;28;20429;-92
2022/09/27 00:59:02;;;;;;;15.53;10.40;;;14.30;99.90;;;;;;4961737;28;20418;-94
2022/09/27 01:01:29;;;;;;;12.57;10.27;;;14.30;99.90;;;;;;4979538;28;20474;-94
2022/09/27 01:04:08;;;;;;;14.50;9.10;;;14.30;99.90;;;;;;4964736;28;20528;-96
2022/09/27 01:06:35;;;;;;;21.53;9.60;;;14.30;99.90;;;;;;4979212;28;20433;-94
2022/09/27 01:09:01;;;;;;;16.70;9.63;;;14.30;99.90;;;;;;4977713;28;20794;-95
2022/09/27 01:11:48;;;;;;;13.33;9.47;;;14.30;99.90;;;;;;4962046;28;20422;-95
2022/09/27 01:14:35;;;;;;;18.10;9.93;;;14.30;99.90;;;;;;4979941;28;20434;-96
2022/09/27 01:17:33;;;;;;;11.23;9.23;;;14.30;99.90;;;;;;4978333;28;20438;-93
2022/09/27 01:20:23;;;;;;;18.13;10.60;;;14.20;99.90;;;;;;4962106;28;20446;-93
2022/09/27 01:23:26;;;;;;;15.10;10.00;;;14.20;99.90;;;;;;4961355;28;20520;-95
2022/09/27 01:26:28;;;;;;;11.50;9.37;;;14.20;99.90;;;;;;4980071;28;20481;-95
2022/09/27 01:29:18;;;;;;;11.70;8.33;;;14.20;99.90;;;;;;4984958;28;20414;-95
2022/09/27 01:31:47;;;;;;;14.80;9.27;;;14.20;99.90;;;;;;4993931;28;20442;-96
2022/09/27 01:34:38;;;;;;;11.53;10.37;;;14.20;99.90;;;;;;4993372;28;20458;-93
2022/09/27 01:37:23;;;;;;;15.20;9.50;;;14.10;99.90;;;;;;4977578;28;20441;-96
2022/09/27 01:39:56;;;;;;;12.00;9.30;;;14.10;99.90;;;;;;4960879;28;20832;-96
2022/09/27 01:42:36;;;;;;;11.80;9.60;;;14.10;99.90;;;;;;4978767;28;20474;-95
2022/09/27 01:45:35;;;;;;;13.73;10.80;;;14.10;99.90;;;;;;4961284;28;20450;-96
2022/09/27 01:48:09;;;;;;;11.60;10.50;;;14.10;99.90;;;;;;4959336;28;20439;-93
2022/09/27 01:50:53;;;;;;;19.77;11.70;;;14.10;99.90;;;;;;4961019;28;20442;-93
2022/09/27 01:53:24;;;;;;;13.33;11.10;;;14.10;99.90;;;;;;4960771;28;20434;-94
2022/09/27 01:55:53;;;;;;;11.27;10.17;;;14.10;99.90;;;;;;4960632;28;20500;-93
2022/09/27 01:58:41;;;;;;;12.30;10.97;;;14.10;99.90;;;;;;4978699;28;20407;-96
2022/09/27 02:01:08;;;;;;;11.77;9.97;;;14.10;99.90;;;;;;4993248;28;20488;-94
2022/09/27 02:03:41;;;;;;;12.10;10.80;;;14.00;99.90;;;;;;4969693;28;20505;-94
2022/09/27 02:06:17;;;;;;;11.83;10.60;;;14.00;99.90;;;;;;4960630;28;20476;-95
2022/09/27 02:09:13;;;;;;;11.13;10.03;;;14.00;99.90;;;;;;4982455;28;20815;-94
2022/09/27 02:11:44;;;;;;;14.27;10.63;;;14.00;99.90;;;;;;4976677;28;20435;-94
2022/09/27 02:14:16;;;;;;;13.00;11.03;;;14.00;99.90;;;;;;4960570;28;20769;-96
2022/09/27 02:16:52;;;;;;;13.97;11.70;;;14.00;99.90;;;;;;4977700;28;20422;-93
2022/09/27 02:19:37;;;;;;;16.20;11.27;;;14.00;99.90;;;;;;4980140;28;20453;-94
2022/09/27 02:22:34;;;;;;;12.97;10.70;;;14.00;99.90;;;;;;4960348;28;20573;-95
2022/09/27 02:25:33;;;;;;;12.10;10.90;;;14.00;99.90;;;;;;4977423;28;20427;-95
2022/09/27 02:28:20;;;;;;;13.07;11.43;;;14.00;99.90;;;;;;4960292;28;20422;-93
2022/09/27 02:30:46;;;;;;;15.23;10.93;;;13.90;99.90;;;;;;4976258;28;20454;-95
2022/09/27 02:33:12;;;;;;;13.97;10.90;;;14.00;99.90;;;;;;4960002;28;20394;-95
2022/09/27 02:35:38;;;;;;;23.60;12.37;;;13.90;99.90;;;;;;4960067;28;20200;-94
2022/09/27 02:38:05;;;;;;;16.47;11.33;;;13.90;99.90;;;;;;4976127;28;20176;-94
2022/09/27 02:40:34;;;;;;;20.90;12.50;;;13.90;99.90;;;;;;4959619;28;20240;-95
2022/09/27 02:43:04;;;;;;;14.10;12.60;;;13.90;99.90;;;;;;4959713;28;20474;-93
2022/09/27 02:46:02;;;;;;;15.97;12.63;;;13.90;99.90;;;;;;4977141;28;20426;-95
2022/09/27 02:48:34;;;;;;;16.50;11.00;;;13.90;99.90;;;;;;4964300;28;20825;-94
2022/09/27 02:51:18;;;;;;;12.30;11.10;;;14.00;99.90;;;;;;4985395;28;20517;-93
2022/09/27 02:54:02;;;;;;;9.93;8.93;;;13.90;99.90;;;;;;4977154;28;20893;-94
2022/09/27 02:56:50;;;;;;;17.20;10.83;;;13.90;99.90;;;;;;4991987;28;20433;-95
2022/09/27 02:59:41;;;;;;;12.37;10.80;;;13.90;99.90;;;;;;4959273;28;20438;-96
2022/09/27 03:02:37;;;;;;;13.33;10.93;;;13.90;99.90;;;;;;4959726;28;20441;-95
2022/09/27 03:05:07;;;;;;;16.37;11.07;;;13.90;99.90;;;;;;4982117;28;20450;-94
2022/09/27 03:07:34;;;;;;;13.37;11.63;;;13.90;99.90;;;;;;4959636;28;20471;-93
2022/09/27 03:09:59;;;;;;;18.60;11.90;;;13.90;99.90;;;;;;4959299;28;20508;-94
2022/09/27 03:12:25;;;;;;;22.60;11.10;;;13.90;99.90;;;;;;4959575;28;20397;-94
2022/09/27 03:14:56;;;;;;;14.47;11.60;;;13.90;99.90;;;;;;4959435;28;20200;-96
2022/09/27 03:17:22;;;;;;;12.00;10.80;;;13.90;99.90;;;;;;4977625;28;20215;-95
2022/09/27 03:19:48;;;;;;;24.03;11.10;;;13.90;99.90;;;;;;4960616;28;20934;-95
2022/09/27 03:22:14;;;;;;;16.53;10.03;;;13.90;99.90;;;;;;4976814;28;20462;-95
2022/09/27 03:24:40;;;;;;;13.93;10.53;;;13.90;99.90;;;;;;4974302;28;20498;-96
2022/09/27 03:27:06;;;;;;;16.53;11.70;;;13.90;99.90;;;;;;4974238;28;20442;-95
2022/09/27 03:29:31;;;;;;;15.57;10.27;;;13.90;99.90;;;;;;4984452;28;20775;-96
2022/09/27 03:31:57;;;;;;;17.23;11.03;;;13.90;99.90;;;;;;4964048;28;20409;-94
2022/09/27 03:34:23;;;;;;;16.87;10.40;;;13.80;99.90;;;;;;4959134;28;20208;-95
2022/09/27 03:36:49;;;;;;;16.33;11.27;;;13.80;99.90;;;;;;4959243;28;20879;-95
2022/09/27 03:39:15;;;;;;;15.80;11.93;;;13.90;99.90;;;;;;4958853;28;20273;-94
2022/09/27 03:41:41;;;;;;;20.03;13.30;;;13.80;99.90;;;;;;4959392;28;20461;-96
2022/09/27 03:44:07;;;;;;;25.90;14.17;;;13.80;99.90;;;;;;4958843;28;20196;-95
2022/09/27 03:46:33;;;;;;;20.00;12.70;;;13.90;99.90;;;;;;4959271;28;20709;-94
2022/09/27 03:48:59;;;;;;;18.40;13.73;;;13.90;99.90;;;;;;4975867;28;20381;-94
2022/09/27 03:51:25;;;;;;;24.60;13.33;;;13.90;99.90;;;;;;4959128;28;20401;-94
2022/09/27 03:53:51;;;;;;;19.97;13.93;;;13.90;99.90;;;;;;4958992;28;20427;-94
2022/09/27 03:56:17;;;;;;;16.20;13.17;;;13.80;99.90;;;;;;4966958;28;20429;-94
2022/09/27 03:58:43;;;;;;;21.23;13.07;;;13.90;99.90;;;;;;4971553;28;20474;-96
2022/09/27 04:01:09;;;;;;;15.87;12.03;;;13.90;99.90;;;;;;4974931;28;20220;-96
2022/09/27 04:03:35;;;;;;;12.60;11.30;;;13.90;99.90;;;;;;4958902;28;20438;-94
2022/09/27 04:06:01;;;;;;;23.63;12.20;;;13.90;99.90;;;;;;4962920;28;20212;-95
2022/09/27 04:08:28;;;;;;;14.33;11.80;;;13.90;99.90;;;;;;4976134;28;20821;-95
2022/09/27 04:10:54;;;;;;;14.40;11.70;;;13.90;99.90;;;;;;4961285;28;20512;-95
2022/09/27 04:13:20;;;;;;;15.60;11.67;;;13.80;99.90;;;;;;4982028;28;20497;-94
2022/09/27 04:15:46;;;;;;;13.60;12.03;;;13.90;99.90;;;;;;4984089;28;20884;-93
2022/09/27 04:18:12;;;;;;;13.73;11.37;;;13.90;99.90;;;;;;4983045;28;20178;-96
2022/09/27 04:20:37;;;;;;;13.27;11.87;;;13.90;99.90;;;;;;4964999;28;20220;-96
2022/09/27 04:23:03;;;;;;;13.33;11.97;;;13.90;99.90;;;;;;4993926;28;20247;-96
2022/09/27 04:25:29;;;;;;;16.63;12.43;;;13.90;99.90;;;;;;4985414;28;20297;-94
2022/09/27 04:27:54;;;;;;;14.13;12.13;;;13.80;99.90;;;;;;4964778;28;20188;-94
2022/09/27 04:30:21;;;;;;;12.60;11.30;;;13.80;99.90;;;;;;4991337;28;20218;-95
2022/09/27 04:32:47;;;;;;;13.40;11.30;;;13.80;99.90;;;;;;5000982;28;20275;-94
2022/09/27 04:37:58;;;;;;;12.83;11.03;;;13.80;99.90;;;;;;4999213;28;20664;-94
2022/09/27 04:40:24;;;;;;;13.03;11.03;;;13.80;99.90;;;;;;4980985;28;20974;-94
2022/09/27 04:42:51;;;;;;;13.33;11.40;;;13.80;99.90;;;;;;4981257;28;20481;-93
2022/09/27 04:45:18;;;;;;;13.83;11.57;;;13.80;99.90;;;;;;4981524;28;20441;-96
2022/09/27 04:47:45;;;;;;;17.53;12.47;;;13.80;99.90;;;;;;4978497;28;20430;-95
2022/09/27 04:50:12;;;;;;;14.43;11.97;;;13.80;99.90;;;;;;4981131;28;21068;-95
2022/09/27 04:52:39;;;;;;;14.97;12.53;;;13.80;99.90;;;;;;4980757;28;20453;-96
2022/09/27 04:55:06;;;;;;;15.33;12.73;;;13.70;99.90;;;;;;4980515;28;20479;-93
2022/09/27 04:57:31;;;;;;;16.80;14.13;;;13.80;99.90;;;;;;4979450;28;20445;-93
2022/09/27 05:00:00;;;;;;;17.03;13.17;;;13.70;99.90;;;;;;4979444;28;20424;-95
2022/09/27 05:02:27;;;;;;;15.43;12.40;;;13.70;99.90;;;;;;4979753;28;20219;-93
2022/09/27 05:04:56;;;;;;;15.90;13.90;;;13.70;99.90;;;;;;4980738;28;20444;-96
2022/09/27 05:07:22;;;;;;;21.33;14.80;;;13.70;99.90;;;;;;4981656;28;20795;-94
2022/09/27 05:09:48;;;;;;;19.17;12.77;;;13.70;99.90;;;;;;4980605;28;20445;-95
2022/09/27 05:12:13;;;;;;;25.77;13.80;;;13.70;99.90;;;;;;4997817;28;20267;-95
2022/09/27 05:14:40;;;;;;;31.13;13.57;;;13.70;99.90;;;;;;4983056;28;20294;-95
2022/09/27 05:17:08;;;;;;;21.97;12.60;;;13.70;99.90;;;;;;4984182;28;20279;-96
2022/09/27 05:19:35;;;;;;;23.50;13.90;;;13.70;99.90;;;;;;4993131;28;20425;-95
2022/09/27 05:22:01;;;;;;;27.27;14.00;;;13.70;99.90;;;;;;4993430;28;20485;-95
2022/09/27 05:24:32;;;;;;;24.10;14.50;;;13.70;99.90;;;;;;5008142;28;20457;-94
2022/09/27 05:27:00;;;;;;;24.10;12.80;;;13.70;99.90;;;;;;5009653;28;20422;-95
2022/09/27 05:29:26;;;;;;;23.73;13.40;;;13.70;99.90;;;;;;4980025;28;20582;-95
2022/09/27 05:31:52;;;;;;;28.60;13.63;;;13.70;99.90;;;;;;4979746;28;20469;-94
2022/09/27 05:34:19;;;;;;;22.90;14.10;;;13.70;99.90;;;;;;4997560;28;20819;-94
2022/09/27 05:36:49;;;;;;;28.30;13.80;;;13.70;99.90;;;;;;4980397;28;20187;-95
2022/09/27 05:39:16;;;;;;;22.47;13.27;;;13.70;99.90;;;;;;4979876;28;20424;-94
2022/09/27 05:41:45;;;;;;;30.60;14.50;;;13.70;99.90;;;;;;4979201;28;20485;-95
2022/09/27 05:44:25;;;;;;;26.17;14.50;;;13.70;99.90;;;;;;5170812;27;20580;-72
2022/09/27 05:46:51;;;;;;;27.77;13.23;;;13.80;99.90;;;;;;5135467;27;20987;-71
2022/09/27 05:49:17;;;;;;;25.50;13.43;;;13.80;99.90;;;;;;5131639;27;20270;-72
2022/09/27 05:51:42;;;;;;;20.17;13.40;;;13.90;99.90;;;;;;5132465;27;20499;-72
2022/09/27 05:54:08;;;;;;;24.70;13.40;;;13.90;99.90;;;;;;5135979;27;20174;-72
2022/09/27 05:56:34;;;;;;;28.63;15.10;;;13.90;99.90;;;;;;5142944;27;20190;-72
2022/09/27 05:58:59;;;;;;;17.67;13.33;;;13.90;99.90;;;;;;5121452;27;20187;-72
2022/09/27 06:01:26;;;;;;;20.53;13.70;;;14.00;99.90;;;;;;5134551;27;20199;-76
2022/09/27 06:03:52;;;;;;;27.37;17.50;;;14.00;99.90;;;;;;5112041;28;20314;-74
2022/09/27 06:06:18;;;;;;;18.50;11.90;;;14.00;99.90;;;;;;5132645;27;20463;-75
2022/09/27 06:08:44;;;;;;;21.73;13.17;;;14.00;99.90;;;;;;5128154;27;20856;-74
2022/09/27 06:11:11;;;;;;;16.37;13.60;;;14.00;99.90;;;;;;5118722;27;20234;-75
2022/09/27 06:13:38;;;;;;;25.07;14.70;;;14.00;99.90;;;;;;5118726;27;20182;-74
2022/09/27 06:16:05;;;;;;;19.53;13.57;;;14.00;99.90;;;;;;5149380;27;20409;-74
2022/09/27 06:18:31;;;;;;;18.83;12.70;;;14.00;99.90;;;;;;5124908;27;20466;-75
2022/09/27 06:21:02;;;;;;;19.20;12.57;;;14.00;99.90;;;;;;5137065;27;20481;-75
2022/09/27 06:23:28;;;;;;;22.23;14.47;;;14.00;99.90;;;;;;5137476;27;20586;-75
2022/09/27 06:25:54;;;;;;;20.47;14.20;;;14.00;99.90;;;;;;5146600;27;21026;-74
2022/09/27 06:28:21;;;;;;;20.40;14.03;;;14.00;99.90;;;;;;5140104;27;20434;-75
2022/09/27 06:30:48;;;;;;;22.97;14.67;;;14.00;99.90;;;;;;5123567;27;20197;-75
2022/09/27 06:33:18;;;;;;;27.63;13.77;;;14.00;99.90;;;;;;5138272;27;20936;-74
2022/09/27 06:35:45;;;;;;;23.33;13.13;;;14.10;99.90;;;;;;5123113;27;20437;-75
2022/09/27 06:38:13;;;;;;;21.80;14.17;;;14.10;99.90;;;;;;5140039;27;20849;-74
2022/09/27 06:40:38;;;;;;;19.63;12.67;;;14.20;99.90;;;;;;5119182;27;20437;-75
2022/09/27 06:43:09;;;;;;;30.13;15.07;;;14.20;99.90;;;;;;5137142;27;20842;-74
2022/09/27 06:45:36;;;;;;;23.03;16.00;;;14.20;99.90;;;;;;5132386;27;20959;-74
2022/09/27 06:48:07;;;;;;;20.20;14.27;;;14.30;99.90;;;;;;5142995;27;20925;-75
2022/09/27 06:50:35;;;;;;;27.73;14.57;;;14.30;99.90;;;;;;5138491;27;20452;-75
2022/09/27 06:53:02;;;;;;;29.93;13.93;;;14.40;99.90;;;;;;5138083;27;20556;-74
2022/09/27 06:55:27;;;;;;;25.80;12.47;;;14.40;99.90;;;;;;5122771;27;20438;-74
2022/09/27 07:00:44;;;;;;;28.30;13.20;;;14.60;99.90;;;;;;5123414;27;20213;-74
2022/09/27 07:03:10;;;;;;;29.53;14.57;;;14.60;99.90;;;;;;5126539;27;21001;-74
2022/09/27 07:05:36;;;;;;;23.43;13.67;;;14.70;99.90;;;;;;5107723;27;20474;-74
2022/09/27 07:08:02;;;;;;;23.83;14.10;;;14.80;99.90;;;;;;5132013;27;20439;-74
2022/09/27 07:10:32;;;;;;;18.80;12.60;;;14.80;99.90;;;;;;5134106;27;20463;-74
2022/09/27 07:13:06;;;;;;;24.73;13.40;;;14.90;99.90;;;;;;5109997;27;20473;-75
2022/09/27 07:15:39;;;;;;;23.47;12.93;;;14.90;99.90;;;;;;5110685;27;20443;-74
2022/09/27 07:18:06;;;;;;;27.87;14.20;;;14.90;99.90;;;;;;5124601;27;20928;-75
2022/09/27 07:20:36;;;;;;;22.00;14.60;;;15.00;99.90;;;;;;5115076;27;20427;-74
2022/09/27 07:23:04;;;;;;;23.13;13.87;;;15.00;99.90;;;;;;5120426;27;20527;-75
2022/09/27 07:25:31;;;;;;;19.77;13.40;;;15.00;99.90;;;;;;5130569;27;20496;-74
2022/09/27 07:28:01;;;;;;;29.10;14.43;;;15.10;99.90;;;;;;5112999;27;20427;-75
2022/09/27 07:30:27;;;;;;;26.57;15.10;;;15.10;99.90;;;;;;5128330;27;20447;-75
2022/09/27 07:33:03;;;;;;;26.17;13.97;;;15.20;99.90;;;;;;5115357;27;20522;-74
2022/09/27 07:35:29;;;;;;;26.73;15.90;;;15.30;99.90;;;;;;5108764;27;20786;-75
2022/09/27 07:37:56;;;;;;;24.53;14.90;;;15.40;99.90;;;;;;5121317;27;20416;-74
2022/09/27 07:40:22;;;;;;;24.47;13.73;;;15.40;99.90;;;;;;5120473;27;20660;-74
2022/09/27 07:42:56;;;;;;;30.13;15.00;;;15.40;99.90;;;;;;5121252;27;20479;-74
2022/09/27 07:45:22;;;;;;;26.33;15.83;;;15.50;99.90;;;;;;5121675;27;20443;-75
2022/09/27 07:47:49;;;;;;;33.27;17.77;;;15.60;99.90;;;;;;5131799;27;20427;-75
2022/09/27 07:50:15;;;;;;;28.20;16.40;;;15.60;99.90;;;;;;5126209;27;20476;-75
2022/09/27 07:52:43;;;;;;;28.73;16.70;;;15.70;99.90;;;;;;5129025;27;20484;-75
2022/09/27 07:55:10;;;;;;;28.27;16.90;;;15.70;99.90;;;;;;5102334;27;20435;-75
2022/09/27 07:57:37;;;;;;;29.40;16.50;;;15.70;99.90;;;;;;5102606;28;20428;-75
2022/09/27 08:00:09;;;;;;;29.80;15.53;;;15.80;99.90;;;;;;5106465;27;21120;-75
2022/09/27 08:02:34;;;;;;;35.63;16.63;;;15.80;99.90;;;;;;5120658;27;20683;-75
2022/09/27 08:05:01;;;;;;;33.43;16.27;;;15.90;99.90;;;;;;5103194;27;20519;-75
2022/09/27 08:07:27;;;;;;;36.13;18.60;;;15.90;99.90;;;;;;5128000;27;20176;-75
2022/09/27 08:09:53;;;;;;;29.63;16.80;;;15.90;99.90;;;;;;5113150;27;20859;-75
2022/09/27 08:12:22;;;;;;;30.07;16.70;;;16.00;99.90;;;;;;5129841;27;20519;-75
2022/09/27 08:14:48;;;;;;;36.03;19.37;;;16.00;99.90;;;;;;5112203;27;20304;-75
2022/09/27 08:17:14;;;;;;;35.83;17.63;;;16.00;99.90;;;;;;5121550;27;21075;-75
2022/09/27 08:19:40;;;;;;;31.73;19.10;;;16.00;99.90;;;;;;5130906;27;20425;-74
2022/09/27 08:22:07;;;;;;;36.50;19.13;;;16.00;99.90;;;;;;5116798;27;20398;-75
2022/09/27 08:24:33;;;;;;;38.77;18.00;;;16.10;99.90;;;;;;5127996;27;20286;-74
2022/09/27 08:26:59;;;;;;;34.97;19.60;;;16.10;99.90;;;;;;5133583;27;20890;-75
2022/09/27 08:29:25;;;;;;;42.73;19.47;;;16.10;99.90;;;;;;5132960;27;20954;-75
2022/09/27 08:31:53;;;;;;;35.20;17.60;;;16.20;99.90;;;;;;5132301;27;20422;-75
2022/09/27 08:34:21;;;;;;;33.27;17.53;;;16.20;99.90;;;;;;5107864;27;20525;-75
2022/09/27 08:36:47;;;;;;;34.07;17.73;;;16.30;99.90;;;;;;5118848;27;20408;-75
2022/09/27 08:39:13;;;;;;;37.70;18.83;;;16.30;99.90;;;;;;5098252;27;21146;-76
2022/09/27 08:42:01;;;;;;;37.73;17.97;;;16.40;99.90;;;;;;5129972;27;20188;-75
2022/09/27 08:44:39;;;;;;;36.73;18.53;;;16.40;99.90;;;;;;5129516;27;20183;-75
2022/09/27 08:47:05;;;;;;;36.90;19.27;;;16.50;99.90;;;;;;5096298;27;20434;-75
2022/09/27 08:49:40;;;;;;;35.27;19.33;;;16.50;99.90;;;;;;5103475;27;20419;-75
2022/09/27 08:52:11;;;;;;;37.37;19.37;;;16.60;99.90;;;;;;5102798;27;20182;-76
2022/09/27 08:54:38;;;;;;;40.30;19.77;;;16.60;99.90;;;;;;5130653;27;20435;-76
2022/09/27 08:57:11;;;;;;;40.43;20.03;;;16.70;99.90;;;;;;5134219;27;21045;-75
2022/09/27 08:59:42;;;;;;;80.27;48.77;;;16.70;99.90;;;;;;5098638;27;20558;-75
2022/09/27 09:02:18;;;;;;;50.40;28.23;;;16.80;99.90;;;;;;5120477;27;20419;-75
2022/09/27 09:04:47;;;;;;;53.40;32.80;;;16.90;99.90;;;;;;5108484;27;20504;-75
2022/09/27 09:07:26;;;;;;;46.67;28.00;;;16.90;99.90;;;;;;5126397;27;20579;-73
2022/09/27 09:13:45;;;;;;;31.30;18.40;;;17.10;99.90;;;;;;5127991;27;20904;-75
2022/09/27 09:16:37;;;;;;;29.93;18.43;;;17.10;99.90;;;;;;5115928;27;20443;-73
2022/09/27 09:19:21;;;;;;;27.70;17.00;;;17.10;99.90;;;;;;5103106;28;20468;-73
2022/09/27 09:22:10;;;;;;;28.13;16.33;;;17.20;99.90;;;;;;5093071;28;20413;-73
2022/09/27 09:24:46;;;;;;;29.13;17.53;;;17.20;99.90;;;;;;5108865;27;20467;-73
2022/09/27 09:27:40;;;;;;;28.00;18.30;;;17.30;99.90;;;;;;5129161;27;20488;-73
2022/09/27 09:30:24;;;;;;;29.47;17.53;;;17.30;99.90;;;;;;5111379;27;20460;-73
2022/09/27 09:33:07;;;;;;;27.83;17.53;;;17.30;99.90;;;;;;5103506;27;20474;-73
2022/09/27 09:35:40;;;;;;;23.00;15.27;;;17.30;99.90;;;;;;5109840;27;20443;-73
2022/09/27 09:38:22;;;;;;;34.23;17.63;;;17.40;99.90;;;;;;5093589;28;20435;-73
2022/09/27 09:41:02;;;;;;;26.40;15.90;;;17.40;99.90;;;;;;5107569;27;20489;-72
2022/09/27 09:43:37;;;;;;;24.10;16.43;;;17.40;99.90;;;;;;5119528;28;20986;-73
2022/09/27 09:46:27;;;;;;;26.63;17.20;;;17.50;99.90;;;;;;5127513;27;20446;-73
2022/09/27 09:49:03;;;;;;;27.30;16.70;;;17.50;99.90;;;;;;5124223;27;21192;-73
2022/09/27 09:51:36;;;;;;;28.40;16.97;;;17.50;99.90;;;;;;5131404;28;20518;-73
2022/09/27 09:54:14;;;;;;;24.80;16.73;;;17.60;99.90;;;;;;5119167;27;20435;-73
2022/09/27 09:56:47;;;;;;;27.13;18.13;;;17.60;99.90;;;;;;5115574;28;20992;-73
2022/09/27 09:59:24;;;;;;;28.77;18.40;;;17.60;99.90;;;;;;5125841;27;20431;-73
2022/09/27 10:01:54;;;;;;;30.13;17.47;;;17.60;99.90;;;;;;5094425;28;20519;-73
2022/09/27 10:04:28;;;;;;;27.23;17.80;;;17.70;99.90;;;;;;5107965;28;20463;-73
2022/09/27 10:06:58;;;;;;;30.20;17.80;;;17.80;99.90;;;;;;5109421;28;20555;-73
2022/09/27 10:09:26;;;;;;;27.43;17.87;;;17.90;99.90;;;;;;5115972;28;20519;-73
2022/09/27 10:11:52;;;;;;;32.23;18.23;;;18.00;99.90;;;;;;5097263;28;20757;-73
2022/09/27 10:14:21;;;;;;;23.13;16.30;;;18.10;99.90;;;;;;5125930;28;20477;-73
2022/09/27 10:16:58;;;;;;;24.27;16.47;;;18.20;99.90;;;;;;5124004;28;20466;-73
2022/09/27 10:19:33;;;;;;;25.00;16.97;;;18.30;99.90;;;;;;5108912;28;20999;-73
2022/09/27 10:22:10;;;;;;;30.10;16.17;;;18.30;99.90;;;;;;5127020;28;20410;-73
2022/09/27 10:25:02;;;;;;;25.30;16.30;;;18.30;99.90;;;;;;5128818;28;20431;-73
2022/09/27 10:27:42;;;;;;;22.63;15.97;;;18.40;99.90;;;;;;5094093;28;20976;-73
2022/09/27 10:30:31;;;;;;;23.50;16.27;;;18.40;99.90;;;;;;5100019;27;20433;-73
2022/09/27 10:33:13;;;;;;;26.50;17.47;;;18.40;99.90;;;;;;5130788;27;20444;-73
2022/09/27 10:35:43;;;;;;;28.00;17.93;;;18.40;99.90;;;;;;5114031;27;20434;-76
2022/09/27 10:38:16;;;;;;;27.70;18.13;;;18.40;99.90;;;;;;5130916;27;20932;-72
2022/09/27 10:40:42;;;;;;;26.40;17.87;;;18.40;99.90;;;;;;5131707;27;20435;-73
2022/09/27 10:43:34;;;;;;;31.10;20.30;;;18.50;99.90;;;;;;5123120;27;20927;-72
2022/09/27 10:46:23;;;;;;;30.80;17.97;;;18.50;99.90;;;;;;5127533;27;20447;-73
2022/09/27 10:49:21;;;;;;;29.33;18.50;;;18.50;99.90;;;;;;5128905;27;20427;-73
2022/09/27 10:51:57;;;;;;;32.60;19.73;;;18.60;99.90;;;;;;5105042;27;20562;-72
2022/09/27 10:54:29;;;;;;;38.10;22.57;;;18.70;99.90;;;;;;5108788;27;21028;-74
2022/09/27 10:56:58;;;;;;;33.10;20.00;;;18.70;99.90;;;;;;5126200;27;20738;-73
2022/09/27 10:59:25;;;;;;;33.27;20.00;;;18.80;99.90;;;;;;5102504;27;20411;-73
2022/09/27 11:01:51;;;;;;;31.97;19.43;;;18.80;99.90;;;;;;5127911;27;21115;-73
2022/09/27 11:04:26;;;;;;;29.33;19.60;;;18.80;99.90;;;;;;5108559;27;20506;-73
2022/09/27 11:07:13;;;;;;;32.50;21.50;;;18.90;99.90;;;;;;5124930;27;20425;-73
2022/09/27 11:09:52;;;;;;;29.37;18.93;;;18.90;99.90;;;;;;5121755;27;20436;-73
2022/09/27 11:12:20;;;;;;;32.23;19.33;;;19.00;99.90;;;;;;5104884;27;20992;-73
2022/09/27 11:15:06;;;;;;;30.23;19.93;;;19.00;99.90;;;;;;5125048;27;20491;-73
2022/09/27 11:18:15;;;;;;;33.13;20.27;;;19.00;99.90;;;;;;5105149;27;20457;-73
2022/09/27 11:20:52;;;;;;;29.40;19.70;;;19.00;99.90;;;;;;5127346;27;20456;-73
2022/09/27 11:23:35;;;;;;;31.17;19.83;;;19.00;99.90;;;;;;5131673;27;20476;-73
2022/09/27 11:26:07;;;;;;;34.03;20.20;;;19.10;99.90;;;;;;5127186;27;20442;-73
2022/09/27 11:28:32;;;;;;;27.20;19.70;;;19.10;99.90;;;;;;5122439;27;20777;-73
2022/09/27 11:31:02;;;;;;;31.73;22.03;;;19.20;99.90;;;;;;5120843;27;20444;-73
2022/09/27 11:33:48;;;;;;;33.90;22.37;;;19.20;99.90;;;;;;5123188;27;20174;-73
2022/09/27 11:36:28;;;;;;;29.70;23.37;;;19.30;99.90;;;;;;5105411;27;20453;-73
2022/09/27 11:39:19;;;;;;;32.83;22.37;;;19.40;99.90;;;;;;5104107;27;20430;-74
2022/09/27 11:42:13;;;;;;;30.60;20.10;;;19.50;99.90;;;;;;5121975;27;20414;-73
2022/09/27 11:44:41;;;;;;;27.77;20.43;;;19.50;99.90;;;;;;5100226;27;20478;-73
2022/09/27 11:47:44;;;;;;;31.30;21.70;;;19.50;99.90;;;;;;5117592;27;20510;-73
2022/09/27 11:50:24;;;;;;;28.00;20.00;;;19.50;99.90;;;;;;5095393;27;20827;-73
2022/09/27 11:53:10;;;;;;;28.60;20.07;;;19.60;99.90;;;;;;5098392;27;20965;-73
2022/09/27 11:55:45;;;;;;;28.90;20.40;;;19.60;99.90;;;;;;5119941;27;20467;-74
2022/09/27 11:58:22;;;;;;;31.67;21.93;;;19.70;99.90;;;;;;5095694;27;20821;-73
2022/09/27 12:01:09;;;;;;;33.80;22.97;;;19.80;99.90;;;;;;5101273;27;20447;-73
2022/09/27 12:03:38;;;;;;;27.83;22.33;;;19.80;99.90;;;;;;5120735;27;20978;-72
2022/09/27 12:06:13;;;;;;;35.80;23.93;;;20.00;99.90;;;;;;5102614;27;20446;-73
2022/09/27 12:09:04;;;;;;;32.60;23.00;;;20.00;99.90;;;;;;5099057;27;20446;-73
2022/09/27 12:11:37;;;;;;;32.40;22.90;;;20.00;99.90;;;;;;5125308;27;20807;-73
2022/09/27 12:14:23;;;;;;;35.50;22.30;;;20.10;99.90;;;;;;5116701;27;20955;-73
2022/09/27 12:16:52;;;;;;;34.43;24.30;;;20.20;99.90;;;;;;5098733;27;20432;-73
2022/09/27 12:19:26;;;;;;;35.00;24.27;;;20.20;99.90;;;;;;5101824;27;20954;-74
2022/09/27 12:21:55;;;;;;;39.07;26.07;;;20.20;99.90;;;;;;5104681;27;20494;-74
2022/09/27 12:24:26;;;;;;;32.47;22.60;;;20.20;99.90;;;;;;5119531;27;20471;-74
2022/09/27 12:26:57;;;;;;;31.23;22.70;;;20.10;99.90;;;;;;5091936;27;21610;-73
2022/09/27 12:29:35;;;;;;;30.47;21.93;;;20.10;99.90;;;;;;5105081;27;20427;-73
2022/09/27 12:32:23;;;;;;;30.30;21.30;;;20.10;99.90;;;;;;5125244;27;20663;-73
2022/09/27 12:35:04;;;;;;;31.07;22.27;;;20.00;99.90;;;;;;5126722;27;20896;-73
2022/09/27 12:37:42;;;;;;;31.83;22.47;;;20.00;99.90;;;;;;5121308;27;20439;-73
2022/09/27 12:40:35;;;;;;;28.97;21.80;;;20.00;99.90;;;;;;5123367;27;20866;-73
2022/09/27 12:43:22;;;;;;;27.13;20.67;;;20.00;99.90;;;;;;5118025;27;20838;-73
2022/09/27 12:45:52;;;;;;;35.20;21.70;;;20.00;99.90;;;;;;5127043;27;20485;-73
2022/09/27 12:48:36;;;;;;;32.40;23.23;;;20.00;99.90;;;;;;5113282;27;20434;-73
2022/09/27 12:51:01;;;;;;;31.70;23.13;;;20.00;99.90;;;;;;5128329;27;20503;-73
2022/09/27 12:53:55;;;;;;;33.00;25.20;;;20.00;99.90;;;;;;5124808;27;20816;-73
2022/09/27 12:56:37;;;;;;;30.00;21.97;;;20.10;99.90;;;;;;5127461;27;20210;-73
2022/09/27 12:59:28;;;;;;;31.80;23.40;;;20.10;99.90;;;;;;5104199;27;20872;-73
2022/09/27 13:02:19;;;;;;;32.03;23.93;;;20.10;99.90;;;;;;5122118;27;20453;-73
2022/09/27 13:05:10;;;;;;;38.27;27.00;;;20.20;99.90;;;;;;5125180;27;20461;-73
2022/09/27 13:08:23;;;;;;;34.27;24.37;;;20.20;99.90;;;;;;5111282;27;20448;-73